createdAt,value
2018-12-08T00:00:25.447Z,99310
2018-12-08T00:05:48.181Z,99311
2018-12-08T00:11:10.944Z,99327
2018-12-08T00:16:34.294Z,99331
2018-12-08T00:21:57.361Z,99340
2018-12-08T00:27:20.475Z,99342
2018-12-08T00:32:43.422Z,99335
2018-12-08T00:38:06.782Z,99344
2018-12-08T00:43:29.806Z,99347
2018-12-08T00:48:52.609Z,99339
2018-12-08T00:54:15.431Z,99338
2018-12-08T00:59:38.204Z,99346
2018-12-08T01:05:00.967Z,99334
2018-12-08T01:10:23.633Z,99332
2018-12-08T01:15:46.304Z,99330
2018-12-08T01:21:09.021Z,99338
2018-12-08T01:26:32.390Z,99337
2018-12-08T01:31:55.021Z,99334
2018-12-08T01:37:18.168Z,99341
2018-12-08T01:42:41.104Z,99340
2018-12-08T01:48:03.792Z,99346
2018-12-08T01:53:26.487Z,99352
2018-12-08T01:58:49.231Z,99349
2018-12-08T02:04:12.043Z,99337
2018-12-08T02:09:34.727Z,99369
2018-12-08T02:14:57.445Z,99360
2018-12-08T02:20:21.451Z,99379
2018-12-08T02:25:44.572Z,99365
2018-12-08T02:31:07.275Z,99359
2018-12-08T02:36:29.979Z,99354
2018-12-08T02:41:52.911Z,99336
2018-12-08T02:47:15.945Z,99322
2018-12-08T02:52:38.610Z,99308
2018-12-08T02:58:02.066Z,99328
2018-12-08T03:03:24.956Z,99324
2018-12-08T03:08:49.028Z,99319
2018-12-08T03:14:12.342Z,99302
2018-12-08T03:19:36.381Z,99293
2018-12-08T03:24:59.045Z,99290
2018-12-08T03:30:21.708Z,99294
2018-12-08T03:35:44.336Z,99287
2018-12-08T03:41:06.981Z,99275
2018-12-08T03:46:29.594Z,99282
2018-12-08T03:51:52.185Z,99267
2018-12-08T03:57:14.780Z,99271
2018-12-08T04:02:38.043Z,99254
2018-12-08T04:08:00.709Z,99247
2018-12-08T04:13:23.359Z,99266
2018-12-08T04:18:46.030Z,99257
2018-12-08T04:24:08.652Z,99249
2018-12-08T04:29:31.592Z,99250
2018-12-08T04:34:55.200Z,99231
2018-12-08T04:40:17.943Z,99235
2018-12-08T04:45:40.751Z,99236
2018-12-08T04:51:03.847Z,99235
2018-12-08T04:56:26.464Z,99226
2018-12-08T05:01:49.600Z,99227
2018-12-08T05:07:12.556Z,99221
2018-12-08T05:12:36.160Z,99222
2018-12-08T05:17:58.813Z,99211
2018-12-08T05:23:21.517Z,99214
2018-12-08T05:28:44.151Z,99178
2018-12-08T05:34:06.988Z,99199
2018-12-08T05:39:30.050Z,99193
2018-12-08T05:44:52.990Z,99199
2018-12-08T05:50:15.852Z,99183
2018-12-08T05:55:38.465Z,99193
2018-12-08T06:01:01.622Z,99182
2018-12-08T06:06:24.264Z,99193
2018-12-08T06:11:48.847Z,99171
2018-12-08T06:17:11.742Z,99164
2018-12-08T06:22:34.374Z,99182
2018-12-08T06:27:57.036Z,99170
2018-12-08T06:33:20.954Z,99164
2018-12-08T06:38:43.626Z,99160
2018-12-08T06:44:06.611Z,99160
2018-12-08T06:49:29.564Z,99155
2018-12-08T06:54:52.212Z,99153
2018-12-08T07:00:14.893Z,99155
2018-12-08T07:05:39.477Z,99130
2018-12-08T07:11:02.109Z,99141
2018-12-08T07:16:24.749Z,99120
2018-12-08T07:21:47.340Z,99140
2018-12-08T07:27:10.426Z,99125
2018-12-08T07:32:38.770Z,99120
2018-12-08T07:37:56.838Z,99118
2018-12-08T07:43:19.545Z,99112
2018-12-08T07:48:42.574Z,99109
2018-12-08T07:54:05.808Z,99114
2018-12-08T07:59:28.848Z,99109
2018-12-08T08:04:51.509Z,99115
2018-12-08T08:10:14.851Z,99118
2018-12-08T08:15:38.013Z,99112
2018-12-08T08:21:01.292Z,99111
2018-12-08T08:26:24.065Z,99104
2018-12-08T08:31:47.081Z,99094
2018-12-08T08:37:10.896Z,99094
2018-12-08T08:42:33.658Z,99081
2018-12-08T08:47:56.748Z,99074
2018-12-08T08:53:19.412Z,99079
2018-12-08T08:58:42.148Z,99075
2018-12-08T09:04:04.865Z,99071
2018-12-08T09:09:27.748Z,99076
2018-12-08T09:14:50.854Z,99070
2018-12-08T09:20:13.696Z,99078
2018-12-08T09:25:39.321Z,99071
2018-12-08T09:31:02.094Z,99075
2018-12-08T09:36:25.670Z,99064
2018-12-08T09:41:50.643Z,99060
2018-12-08T09:47:13.619Z,99065
2018-12-08T09:52:36.450Z,99067
2018-12-08T09:57:59.105Z,99067
2018-12-08T10:03:22.019Z,99058
2018-12-08T10:08:55.219Z,99071
2018-12-08T10:14:28.526Z,99053
2018-12-08T10:19:52.872Z,99035
2018-12-08T10:25:25.986Z,99029
2018-12-08T10:30:50.367Z,99036
2018-12-08T10:36:13.568Z,99033
2018-12-08T10:41:36.299Z,99022
2018-12-08T10:46:59.877Z,99020
2018-12-08T10:52:22.624Z,99010
2018-12-08T10:57:46.387Z,99023
2018-12-08T11:03:09.274Z,99016
2018-12-08T11:08:32.273Z,99026
2018-12-08T11:13:55.715Z,99036
2018-12-08T11:19:18.514Z,99013
2018-12-08T11:24:41.625Z,99021
2018-12-08T11:30:04.584Z,99012
2018-12-08T11:35:27.395Z,99028
2018-12-08T11:40:50.076Z,99014
2018-12-08T11:46:13.693Z,99013
2018-12-08T11:51:36.415Z,99012
2018-12-08T11:56:59.711Z,99007
2018-12-08T12:02:22.546Z,98976
2018-12-08T12:07:45.274Z,99017
2018-12-08T12:13:07.971Z,99019
2018-12-08T12:18:30.697Z,99025
2018-12-08T12:23:53.493Z,99013
2018-12-08T12:29:16.229Z,99022
2018-12-08T12:34:39.036Z,99022
2018-12-08T12:40:02.021Z,99029
2018-12-08T12:45:24.760Z,99029
2018-12-08T12:50:47.513Z,99028
2018-12-08T12:56:10.174Z,99023
2018-12-08T13:01:32.804Z,99027
2018-12-08T13:06:55.462Z,99033
2018-12-08T13:12:18.427Z,99029
2018-12-08T13:17:41.061Z,99030
2018-12-08T13:23:03.659Z,99037
2018-12-08T13:28:26.390Z,99029
2018-12-08T13:33:49.792Z,99032
2018-12-08T13:39:12.497Z,99065
2018-12-08T13:44:35.174Z,99037
2018-12-08T13:49:57.831Z,99034
2018-12-08T13:55:20.848Z,99025
2018-12-08T14:00:44.415Z,99030
2018-12-08T14:06:07.159Z,99038
2018-12-08T14:11:30.088Z,99029
2018-12-08T14:16:52.731Z,99029
2018-12-08T14:22:15.398Z,99025
2018-12-08T14:27:38.498Z,99047
2018-12-08T14:33:01.199Z,99030
2018-12-08T14:38:23.932Z,99044
2018-12-08T14:43:46.632Z,99043
2018-12-08T14:49:09.424Z,99040
2018-12-08T14:54:32.045Z,99032
2018-12-08T14:59:54.822Z,99035
2018-12-08T15:05:17.757Z,99018
2018-12-08T15:10:40.488Z,99024
2018-12-08T15:16:03.152Z,99029
2018-12-08T15:21:25.844Z,99047
2018-12-08T15:26:49.382Z,99054
2018-12-08T15:32:12.167Z,99060
2018-12-08T15:37:34.915Z,99056
2018-12-08T15:42:57.926Z,99055
2018-12-08T15:48:21.798Z,99040
2018-12-08T15:53:44.981Z,99051
2018-12-08T15:59:08.121Z,99057
2018-12-08T16:04:30.278Z,99049
2018-12-08T16:09:53.785Z,99041
2018-12-08T16:15:16.971Z,99026
2018-12-08T16:20:39.934Z,99041
2018-12-08T16:26:02.923Z,99021
2018-12-08T16:31:26.074Z,99030
2018-12-08T16:36:49.089Z,99028
2018-12-08T16:42:14.041Z,99031
2018-12-08T16:47:37.784Z,99020
2018-12-08T16:53:00.853Z,98999
2018-12-08T16:58:23.527Z,98999
2018-12-08T17:03:46.229Z,98989
2018-12-08T17:09:08.844Z,98969
2018-12-08T17:14:31.532Z,98943
2018-12-08T17:19:55.283Z,98935
2018-12-08T17:25:18.046Z,98934
2018-12-08T17:30:42.177Z,98918
2018-12-08T17:36:05.795Z,98898
2018-12-08T17:41:28.428Z,98881
2018-12-08T17:46:52.004Z,98867
2018-12-08T17:52:14.668Z,98839
2018-12-08T17:57:38.137Z,98825
2018-12-08T18:03:01.516Z,98809
2018-12-08T18:08:24.283Z,98787
2018-12-08T18:13:47.672Z,98776
2018-12-08T18:19:10.416Z,98755
2018-12-08T18:24:34.204Z,98752
2018-12-08T18:29:56.905Z,98750
2018-12-08T18:35:19.717Z,98736
2018-12-08T18:40:42.896Z,98733
2018-12-08T18:46:05.970Z,98723
2018-12-08T18:51:28.743Z,98710
2018-12-08T18:56:51.458Z,98692
2018-12-08T19:02:14.799Z,98678
2018-12-08T19:07:37.395Z,98667
2018-12-08T19:13:01.028Z,98669
2018-12-08T19:18:23.723Z,98664
2018-12-08T19:23:46.606Z,98648
2018-12-08T19:29:09.285Z,98628
2018-12-08T19:34:32.089Z,98605
2018-12-08T19:39:54.948Z,98592
2018-12-08T19:45:18.016Z,98577
2018-12-08T19:50:40.916Z,98525
2018-12-08T19:56:04.311Z,98530
2018-12-08T20:01:27.008Z,98505
2018-12-08T20:06:49.675Z,98493
2018-12-08T20:12:12.568Z,98453
2018-12-08T20:17:37.443Z,98432
2018-12-08T20:23:00.207Z,98408
2018-12-08T20:28:23.774Z,98387
2018-12-08T20:33:46.745Z,98366
2018-12-08T20:39:09.466Z,98348
2018-12-08T20:44:32.804Z,98343
2018-12-08T20:49:57.615Z,98333
2018-12-08T20:55:20.652Z,98327
2018-12-08T21:00:43.724Z,98320
2018-12-08T21:06:14.707Z,98285
2018-12-08T21:11:37.756Z,98260
2018-12-08T21:17:00.680Z,98278
2018-12-08T21:22:23.956Z,98268
2018-12-08T21:27:46.824Z,98244
2018-12-08T21:33:09.911Z,98212
2018-12-08T21:38:33.057Z,98198
2018-12-08T21:43:56.039Z,98185
2018-12-08T21:49:19.194Z,98181
2018-12-08T21:54:43.277Z,98173
2018-12-08T22:00:06.453Z,98172
2018-12-08T22:05:29.607Z,98170
2018-12-08T22:10:52.562Z,98179
2018-12-08T22:16:15.493Z,98162
2018-12-08T22:21:40.382Z,98152
2018-12-08T22:27:03.325Z,98144
2018-12-08T22:32:26.292Z,98134
2018-12-08T22:37:49.913Z,98131
2018-12-08T22:43:13.606Z,98118
2018-12-08T22:48:36.341Z,98109
2018-12-08T22:53:59.092Z,98092
2018-12-08T22:59:21.716Z,98089
2018-12-08T23:04:44.681Z,98088
2018-12-08T23:10:07.393Z,98076
2018-12-08T23:15:30.023Z,98099
2018-12-08T23:20:55.627Z,98100
2018-12-08T23:26:18.499Z,98117
2018-12-08T23:31:41.182Z,98145
2018-12-08T23:37:03.912Z,98141
2018-12-08T23:42:26.723Z,98144
2018-12-08T23:47:49.783Z,98159
2018-12-08T23:53:12.755Z,98160
2018-12-08T23:58:36.249Z,98153
